Sieper, LA (71472)

9:28 AM CST on January 24, 2017 (GMT -0600)
Gardner | | Change Station
Active Advisory: Flood Warning

Elev 184 ft 31.27 °N, 92.68 °W | Updated 9 seconds ago

Clear
Clear
55.2 °F
Feels Like 55.2 °F
N
0.7
Wind Variable Wind from East
Gusts 5.4 mph

Today
High -- | Low -- °F
--% Chance of Precip.
Yesterday
High -- | Low -- °F
Precip. -- in
Pressure 29.95 in
Visibility 10.0 miles
Clouds Clear
Dew Point 44 °F
Humidity 66%
Rainfall 0.00 in
Snow Depth Not available.
7:07 AM 5:39 PM
Waning Crescent, 11% visible
METAR KBKB 241454Z AUTO VRB03KT 10SM CLR 13/11 A2986 RMK AO2 SLP141 T01330111 50008
Pressure 29.95 in
Visibility 10.0 miles
Clouds Clear
Dew Point 44 °F
Humidity 66%
Rainfall 0.00 in
Snow Depth Not available.
7:07 AM 5:39 PM
Waning Crescent, 11% visible
METAR KBKB 241454Z AUTO VRB03KT 10SM CLR 13/11 A2986 RMK AO2 SLP141 T01330111 50008

Get Your Daily Forecast Email!

Thanks for signing up!

Be on the lookout for a verification email in your inbox.

You'll start receiving the daily forecast at 8 AM.

×

10-Day Weather Forecast

Almanac

Astronomy

Jan. 24, 2017 Rise Set
Actual Time
Civil Twilight
Nautical Twilight
Astronomical Twilight
Moon
Length of Visible Light
Length of Day
Tomorrow will be .
, % of the Moon is Illuminated

Today's Extremes

State Highs State Lows

Community

WunderPhotos

Upload Photos

1,962,540 photos uploaded!

WunderBlog® & News

Nearby

Air Quality

  Air Quality AQ Index Pollutant
Not available.

Snow Depth

Station Depth Elevation

Earthquake Activity

City Distance Mag. Time & Date
Minimum magnitude displayed is 2.5.

Coastal Water Temperatures

Place Temperature

Stations

Nearby Weather Stations

Station Location Temp. Windchill Dew Point Humidity Wind Precip. Elev Updated Type
                   

Watches & Warnings

Flood Warning
Issued: 8:35 PM CST Jan. 23, 2017 – National Weather Service

The Flood Warning continues for
the Calcasieu River near Glenmora.
* Until further notice... or until the warning is cancelled.
* At 7:45 PM Monday the stage was 15.1 feet.
* Minor flooding is occurring and minor flooding is forecast.
* Flood stage is 12.0 feet.
* Forecast... the river will continue to fall to a stage of 14.3 feet
by Wednesday morning.
* Impact... at stages near 15.0 feet... flooding of secondary roads
near the river and its tributaries begins, including Ashmore Road.
Strothers crossing Road near Calcasieu and Price Crossing Road near
Hineston have several feet of water over them and subject to
washouts.
* Impact... at stages near 14.0 feet... some roads upstream from
Glenmora, including strothers crossing Road near the community of
Calcasieu and Price Crossing Road near Hineston have two to three
feet of water over the Road and are subject to being closed.
Flooding of forested areas near the river will also occur.


Lat... Lon 3113 9279 3090 9269 3090 9262 3105 9265 3115 9275